Time;durP1;ratioP1;P1;durP2;ratioP2;P2;SDS_P1;SDS_P2;PMS_P1;PMS_P2;Temp;Humidity;BMP_temperature;BMP_pressure;BME280_temperature;BME280_humidity;BME280_pressure;Samples;Min_cycle;Max_cycle;Signal;HPM_P1;HPM_P2
2023/05/17 00:02:06;;;;;;;12.23;4.88;;;9.40;99.90;;;;;;6214774;23;20008;-71
2023/05/17 00:04:32;;;;;;;16.00;4.97;;;9.40;99.90;;;;;;6241521;23;20470;-71
2023/05/17 00:06:58;;;;;;;15.05;4.45;;;9.40;99.90;;;;;;6214991;23;20044;-72
2023/05/17 00:09:23;;;;;;;13.98;4.88;;;9.40;99.90;;;;;;6241676;23;20233;-71
2023/05/17 00:11:49;;;;;;;10.57;4.70;;;9.40;99.90;;;;;;6241478;23;20000;-71
2023/05/17 00:14:14;;;;;;;18.85;5.57;;;9.40;99.90;;;;;;6241140;23;19997;-71
2023/05/17 00:16:40;;;;;;;10.93;5.35;;;9.40;99.90;;;;;;6241645;23;20105;-72
2023/05/17 00:19:08;;;;;;;17.42;5.47;;;9.30;99.90;;;;;;6241357;23;20030;-72
2023/05/17 00:21:34;;;;;;;19.33;5.53;;;9.30;99.90;;;;;;6241185;23;20004;-72
2023/05/17 00:23:59;;;;;;;20.85;5.60;;;9.30;99.90;;;;;;6241142;23;19996;-72
2023/05/17 00:26:25;;;;;;;13.75;5.35;;;9.30;99.90;;;;;;6213600;23;20014;-73
2023/05/17 00:28:50;;;;;;;13.00;4.50;;;9.30;99.90;;;;;;6242097;23;20011;-72
2023/05/17 00:31:16;;;;;;;13.48;5.57;;;9.20;99.90;;;;;;6216023;23;20094;-72
2023/05/17 00:33:41;;;;;;;16.58;6.05;;;9.20;99.90;;;;;;6216485;23;20023;-73
2023/05/17 00:36:07;;;;;;;16.02;5.43;;;9.20;99.90;;;;;;6243450;23;20004;-72
2023/05/17 00:38:32;;;;;;;25.53;6.00;;;9.20;99.90;;;;;;6242970;23;20004;-72
2023/05/17 00:40:58;;;;;;;17.95;6.07;;;9.10;99.90;;;;;;6215405;23;20012;-73
2023/05/17 00:43:24;;;;;;;16.60;6.10;;;9.10;99.90;;;;;;6242549;23;20011;-72
2023/05/17 00:45:50;;;;;;;15.07;6.55;;;9.20;99.90;;;;;;6243253;23;20004;-72
2023/05/17 00:48:17;;;;;;;13.93;6.35;;;9.10;99.90;;;;;;6215682;23;20353;-72
2023/05/17 00:50:43;;;;;;;15.10;4.82;;;9.10;99.90;;;;;;6242926;23;20000;-72
2023/05/17 00:53:14;;;;;;;15.45;6.22;;;9.10;99.90;;;;;;6216119;23;20039;-73
2023/05/17 00:55:43;;;;;;;16.85;5.88;;;9.10;99.90;;;;;;6215434;23;20054;-72
2023/05/17 00:58:10;;;;;;;18.38;6.18;;;9.10;99.90;;;;;;6242887;23;20000;-72
2023/05/17 01:00:36;;;;;;;27.23;7.18;;;9.10;99.90;;;;;;6216127;23;20011;-72
2023/05/17 01:03:02;;;;;;;20.13;6.55;;;9.10;99.90;;;;;;6215828;23;19996;-72
2023/05/17 01:05:28;;;;;;;19.30;6.93;;;9.10;99.90;;;;;;6215817;23;20008;-72
2023/05/17 01:07:54;;;;;;;22.35;7.25;;;9.10;99.90;;;;;;6243039;23;20000;-72
2023/05/17 01:10:20;;;;;;;15.57;5.82;;;9.10;99.90;;;;;;6242389;23;20010;-72
2023/05/17 01:13:12;;;;;;;22.73;7.13;;;9.10;99.90;;;;;;6242933;23;20004;-72
2023/05/17 01:15:47;;;;;;;21.45;7.38;;;9.10;99.90;;;;;;6242822;23;20004;-72
2023/05/17 01:18:49;;;;;;;24.73;6.68;;;9.10;99.90;;;;;;6242416;23;20075;-72
2023/05/17 01:21:29;;;;;;;20.60;5.93;;;9.10;99.90;;;;;;6163516;23;20004;-72
2023/05/17 01:24:09;;;;;;;17.77;4.80;;;9.10;99.90;;;;;;6242219;23;20079;-72
2023/05/17 01:26:39;;;;;;;19.75;6.95;;;9.10;99.90;;;;;;6242616;23;20079;-72
2023/05/17 01:29:08;;;;;;;20.97;6.83;;;9.10;99.90;;;;;;6215671;23;20342;-72
2023/05/17 01:31:35;;;;;;;25.65;7.28;;;9.10;99.90;;;;;;6242373;23;20005;-72
2023/05/17 01:34:05;;;;;;;17.10;6.15;;;9.10;99.90;;;;;;6242617;23;20441;-72
2023/05/17 01:36:30;;;;;;;16.88;6.55;;;9.10;99.90;;;;;;6242374;23;20022;-72
2023/05/17 01:38:56;;;;;;;16.33;6.30;;;9.10;99.90;;;;;;6241983;23;20011;-72
2023/05/17 01:41:41;;;;;;;26.77;8.18;;;9.10;99.90;;;;;;6241938;23;20000;-72
2023/05/17 01:44:15;;;;;;;22.53;8.13;;;9.10;99.90;;;;;;6242591;23;20004;-72
2023/05/17 01:46:42;;;;;;;18.52;6.55;;;9.10;99.90;;;;;;6215873;23;20008;-72
2023/05/17 01:49:10;;;;;;;23.90;6.70;;;9.10;99.90;;;;;;6242337;23;20439;-72
2023/05/17 01:51:56;;;;;;;21.88;6.65;;;9.10;99.90;;;;;;6242270;23;20007;-73
2023/05/17 01:54:29;;;;;;;22.70;6.63;;;9.10;99.90;;;;;;6241451;23;20000;-73
2023/05/17 01:56:57;;;;;;;23.88;7.78;;;9.10;99.90;;;;;;6215678;23;20309;-72
2023/05/17 01:59:24;;;;;;;18.35;6.22;;;9.20;99.90;;;;;;6241958;23;20003;-72
2023/05/17 02:01:55;;;;;;;27.05;7.72;;;9.20;99.90;;;;;;6242663;23;20000;-72
2023/05/17 02:04:21;;;;;;;19.85;7.25;;;9.30;99.90;;;;;;6242090;23;20315;-72
2023/05/17 02:06:46;;;;;;;17.92;7.22;;;9.30;99.90;;;;;;6242543;23;20079;-73
2023/05/17 02:09:12;;;;;;;21.55;7.25;;;9.30;99.90;;;;;;6214519;23;20338;-72
2023/05/17 02:11:37;;;;;;;24.88;6.43;;;9.30;99.90;;;;;;6215442;23;20001;-72
2023/05/17 02:14:03;;;;;;;27.10;8.02;;;9.40;99.90;;;;;;6242106;23;20068;-72
2023/05/17 02:16:29;;;;;;;21.58;6.65;;;9.30;99.90;;;;;;6241675;23;20083;-72
2023/05/17 02:18:55;;;;;;;18.95;7.00;;;9.40;99.90;;;;;;6242413;23;20007;-72
2023/05/17 02:21:20;;;;;;;29.88;7.18;;;9.40;99.90;;;;;;6241650;23;20020;-72
2023/05/17 02:23:46;;;;;;;23.15;7.28;;;9.40;99.90;;;;;;6215144;23;20078;-72
2023/05/17 02:26:11;;;;;;;20.52;7.50;;;9.50;99.90;;;;;;6241661;23;20099;-73
2023/05/17 02:28:37;;;;;;;21.20;7.70;;;9.50;99.90;;;;;;6242248;23;20004;-73
2023/05/17 02:31:02;;;;;;;18.40;9.05;;;9.60;99.90;;;;;;6241981;23;20004;-72
2023/05/17 02:33:28;;;;;;;18.90;7.38;;;9.70;99.90;;;;;;6241650;23;20008;-73
2023/05/17 02:35:53;;;;;;;24.45;8.35;;;9.70;99.90;;;;;;6241997;23;20011;-72
2023/05/17 02:38:19;;;;;;;19.70;8.35;;;9.80;99.90;;;;;;6241361;23;20410;-72
2023/05/17 02:40:44;;;;;;;16.85;6.80;;;9.80;99.90;;;;;;6241858;23;19996;-72
2023/05/17 02:43:10;;;;;;;19.20;6.65;;;9.80;99.90;;;;;;6242003;23;20058;-73
2023/05/17 02:45:35;;;;;;;22.20;6.70;;;9.90;99.90;;;;;;6242007;23;20113;-72
2023/05/17 02:48:01;;;;;;;17.63;8.35;;;9.90;99.90;;;;;;6242037;23;20027;-73
2023/05/17 02:50:26;;;;;;;29.25;9.05;;;10.00;99.90;;;;;;6214541;23;20003;-72
2023/05/17 02:52:52;;;;;;;20.00;7.40;;;10.00;99.90;;;;;;6240995;23;20118;-73
2023/05/17 02:55:17;;;;;;;18.58;7.55;;;10.00;99.90;;;;;;6241405;23;20091;-72
2023/05/17 02:57:43;;;;;;;20.90;8.15;;;10.00;99.90;;;;;;6241902;23;20072;-73
2023/05/17 03:00:09;;;;;;;23.20;8.02;;;10.10;99.90;;;;;;6241671;23;20084;-72
2023/05/17 03:02:35;;;;;;;23.42;8.13;;;10.10;99.90;;;;;;6241565;23;20418;-72
2023/05/17 03:05:00;;;;;;;27.48;9.23;;;10.10;99.90;;;;;;6241435;23;20004;-73
2023/05/17 03:07:26;;;;;;;25.98;8.43;;;10.00;99.90;;;;;;6240281;23;20010;-73
2023/05/17 03:09:51;;;;;;;18.00;8.25;;;10.00;99.90;;;;;;6239487;23;20011;-72
2023/05/17 03:12:17;;;;;;;24.98;7.60;;;10.00;99.90;;;;;;6238956;23;20000;-73
2023/05/17 03:14:42;;;;;;;24.05;7.97;;;10.00;99.90;;;;;;6239399;23;20322;-72
2023/05/17 03:17:08;;;;;;;21.27;8.10;;;10.00;99.90;;;;;;6239387;23;20000;-72
2023/05/17 03:19:34;;;;;;;22.63;7.15;;;10.00;99.90;;;;;;6212191;23;20000;-72
2023/05/17 03:22:00;;;;;;;21.77;7.53;;;10.10;99.90;;;;;;6239476;23;20392;-73
2023/05/17 03:24:25;;;;;;;26.45;9.05;;;10.10;99.90;;;;;;6213264;23;20051;-72
2023/05/17 03:26:51;;;;;;;26.52;9.38;;;10.10;99.90;;;;;;6241897;23;19996;-73
2023/05/17 03:29:16;;;;;;;31.35;9.90;;;10.10;99.90;;;;;;6241197;23;20020;-72
2023/05/17 03:31:42;;;;;;;19.35;8.23;;;10.10;99.90;;;;;;6214774;23;20000;-73
2023/05/17 03:34:07;;;;;;;19.70;8.95;;;10.10;99.90;;;;;;6240707;23;20000;-72
2023/05/17 03:36:33;;;;;;;25.95;8.30;;;10.10;99.90;;;;;;6241095;23;20008;-73
2023/05/17 03:38:59;;;;;;;21.75;8.52;;;10.10;99.90;;;;;;6241727;23;20318;-73
2023/05/17 03:41:24;;;;;;;23.60;8.68;;;10.10;99.90;;;;;;6241209;23;20003;-73
2023/05/17 03:43:50;;;;;;;23.13;8.65;;;10.10;99.90;;;;;;6214789;23;20004;-72
2023/05/17 03:46:15;;;;;;;13.35;7.45;;;10.10;99.90;;;;;;6241218;23;20012;-72
2023/05/17 03:48:41;;;;;;;20.23;8.43;;;10.10;99.90;;;;;;6214074;23;20704;-72
2023/05/17 03:51:07;;;;;;;27.88;9.70;;;10.10;99.90;;;;;;6241410;23;20432;-72
2023/05/17 03:53:32;;;;;;;25.38;8.52;;;10.10;99.90;;;;;;6241207;23;20007;-72
2023/05/17 03:55:58;;;;;;;24.75;8.35;;;10.00;99.90;;;;;;6241549;23;20330;-73
2023/05/17 03:58:23;;;;;;;19.23;9.18;;;10.00;99.90;;;;;;6241170;23;20429;-73
2023/05/17 04:00:49;;;;;;;20.58;8.18;;;10.00;99.90;;;;;;6241773;23;19996;-73
2023/05/17 04:03:14;;;;;;;21.27;8.77;;;10.00;99.90;;;;;;6240644;23;20000;-72
2023/05/17 04:05:40;;;;;;;23.80;8.85;;;10.00;99.90;;;;;;6243076;23;20014;-72
2023/05/17 04:08:06;;;;;;;20.70;8.63;;;10.00;99.90;;;;;;6242801;23;20087;-73
2023/05/17 04:10:32;;;;;;;17.20;9.57;;;9.90;99.90;;;;;;6242509;23;20380;-73
2023/05/17 04:12:57;;;;;;;17.17;8.18;;;9.90;99.90;;;;;;6243366;23;20000;-73
2023/05/17 04:15:23;;;;;;;16.00;9.25;;;9.90;99.90;;;;;;6242955;23;20008;-72
2023/05/17 04:17:48;;;;;;;24.25;9.68;;;9.80;99.90;;;;;;6215926;23;20045;-72
2023/05/17 04:20:14;;;;;;;19.60;9.55;;;9.80;99.90;;;;;;6216181;23;20398;-72
2023/05/17 04:22:40;;;;;;;16.77;8.93;;;9.80;99.90;;;;;;6216443;23;20026;-73
2023/05/17 04:25:07;;;;;;;24.05;9.18;;;9.70;99.90;;;;;;6243295;23;20016;-72
2023/05/17 04:27:32;;;;;;;27.10;9.60;;;9.70;99.90;;;;;;6243055;23;20079;-72
2023/05/17 04:29:58;;;;;;;19.15;9.05;;;9.70;99.90;;;;;;6243416;23;20031;-73
2023/05/17 04:32:23;;;;;;;22.33;8.75;;;9.70;99.90;;;;;;6242376;23;20004;-73
2023/05/17 04:34:50;;;;;;;21.30;9.55;;;9.60;99.90;;;;;;6216353;23;20004;-72
2023/05/17 04:37:16;;;;;;;18.42;8.57;;;9.60;99.90;;;;;;6215730;23;20603;-73
2023/05/17 04:39:41;;;;;;;18.80;9.30;;;9.50;99.90;;;;;;6243476;23;20000;-72
2023/05/17 04:42:07;;;;;;;24.77;10.30;;;9.60;99.90;;;;;;6243012;23;20084;-73
2023/05/17 04:44:33;;;;;;;19.63;9.82;;;9.50;99.90;;;;;;6242772;23;20006;-72
2023/05/17 04:46:58;;;;;;;20.33;9.05;;;9.50;99.90;;;;;;6242460;23;20390;-72
2023/05/17 04:49:24;;;;;;;24.48;10.30;;;9.50;99.90;;;;;;6215763;23;20028;-72
2023/05/17 04:51:50;;;;;;;19.60;9.27;;;9.50;99.90;;;;;;6243261;23;20000;-73
2023/05/17 04:54:16;;;;;;;19.02;10.27;;;9.60;99.90;;;;;;6216010;23;20491;-72
2023/05/17 04:56:41;;;;;;;19.30;10.00;;;9.60;99.90;;;;;;6242999;23;20005;-72
2023/05/17 04:59:07;;;;;;;20.40;10.00;;;9.60;99.90;;;;;;6242914;23;20087;-73
2023/05/17 05:01:34;;;;;;;19.50;9.80;;;9.70;99.90;;;;;;6241906;23;19999;-73
2023/05/17 05:03:59;;;;;;;32.63;10.75;;;9.70;99.90;;;;;;6242643;23;20026;-73
2023/05/17 05:06:25;;;;;;;27.65;10.98;;;9.70;99.90;;;;;;6242039;23;20004;-72
2023/05/17 05:08:51;;;;;;;27.20;11.10;;;9.70;99.90;;;;;;6215687;23;20366;-73
2023/05/17 05:11:16;;;;;;;19.10;10.18;;;9.80;99.90;;;;;;6214870;23;20514;-73
2023/05/17 05:13:42;;;;;;;24.95;10.45;;;9.80;99.90;;;;;;6242482;23;20031;-73
2023/05/17 05:16:08;;;;;;;23.60;10.00;;;9.90;99.90;;;;;;6241513;23;20004;-73
2023/05/17 05:18:33;;;;;;;16.65;10.32;;;9.90;99.90;;;;;;6242551;23;19996;-73
2023/05/17 05:20:59;;;;;;;28.02;11.18;;;10.00;99.90;;;;;;6215517;23;20332;-73
2023/05/17 05:23:25;;;;;;;25.38;10.60;;;10.00;99.90;;;;;;6241878;23;20071;-73
2023/05/17 05:25:50;;;;;;;27.77;10.85;;;10.10;99.90;;;;;;6241837;23;20018;-73
2023/05/17 05:28:16;;;;;;;21.83;10.52;;;10.10;99.90;;;;;;6241775;23;19996;-73
2023/05/17 05:30:42;;;;;;;27.35;11.20;;;10.20;99.90;;;;;;6241446;23;20003;-73
2023/05/17 05:33:08;;;;;;;18.92;9.30;;;10.20;99.90;;;;;;6241749;23;20006;-72
2023/05/17 05:35:33;;;;;;;18.42;10.55;;;10.30;99.90;;;;;;6241216;23;20578;-73
2023/05/17 05:37:59;;;;;;;22.17;9.50;;;10.30;99.90;;;;;;6241787;23;20007;-72
2023/05/17 05:40:24;;;;;;;18.42;9.95;;;10.40;99.90;;;;;;6241649;23;20007;-73
2023/05/17 05:42:51;;;;;;;22.63;8.80;;;10.50;99.90;;;;;;6242331;23;20003;-72
2023/05/17 05:45:17;;;;;;;19.85;8.13;;;10.50;99.90;;;;;;6241545;23;20015;-73
2023/05/17 05:47:42;;;;;;;26.02;9.77;;;10.50;99.90;;;;;;6241749;23;20306;-72
2023/05/17 05:50:09;;;;;;;21.30;8.00;;;10.50;99.90;;;;;;6242264;23;20332;-72
2023/05/17 05:52:34;;;;;;;21.73;7.65;;;10.60;99.90;;;;;;6242026;23;19996;-73
2023/05/17 05:55:00;;;;;;;21.17;7.60;;;10.60;99.90;;;;;;6241742;23;20070;-73
2023/05/17 05:57:26;;;;;;;19.20;7.38;;;10.60;99.90;;;;;;6241923;23;20004;-72
2023/05/17 05:59:51;;;;;;;15.82;8.20;;;10.70;99.90;;;;;;6241922;23;20028;-72
2023/05/17 06:02:18;;;;;;;22.95;6.88;;;10.90;99.90;;;;;;6241965;23;20425;-72
2023/05/17 06:04:45;;;;;;;15.25;6.18;;;11.10;99.90;;;;;;6242213;23;20426;-73
2023/05/17 06:07:12;;;;;;;16.20;5.70;;;11.30;99.90;;;;;;6241930;23;20004;-71
2023/05/17 06:09:37;;;;;;;27.42;5.82;;;11.40;99.90;;;;;;6241441;23;20023;-73
2023/05/17 06:12:03;;;;;;;19.77;4.95;;;11.60;99.90;;;;;;6241525;23;20428;-73
2023/05/17 06:14:28;;;;;;;23.67;7.10;;;11.60;99.90;;;;;;6240908;23;20027;-72
2023/05/17 06:16:54;;;;;;;14.32;4.70;;;11.60;99.90;;;;;;6241724;23;19996;-73
2023/05/17 06:19:19;;;;;;;14.20;4.82;;;11.60;99.90;;;;;;6241403;23;20076;-73
2023/05/17 06:21:45;;;;;;;14.05;4.50;;;11.50;99.90;;;;;;6214786;23;20441;-73
2023/05/17 06:24:10;;;;;;;13.10;3.92;;;11.60;99.90;;;;;;6241044;23;20027;-73
2023/05/17 06:26:36;;;;;;;19.67;5.80;;;11.50;99.90;;;;;;6214693;23;20008;-73
2023/05/17 06:29:02;;;;;;;15.43;4.45;;;11.50;99.90;;;;;;6241260;23;20062;-72
2023/05/17 06:31:28;;;;;;;14.60;4.88;;;11.40;99.90;;;;;;6241662;23;20004;-73
2023/05/17 06:33:53;;;;;;;17.45;4.88;;;11.30;99.90;;;;;;6241841;23;20034;-73
2023/05/17 06:36:19;;;;;;;18.77;4.65;;;11.20;99.90;;;;;;6241228;23;20027;-73
2023/05/17 06:38:44;;;;;;;21.60;5.75;;;11.30;99.90;;;;;;6241428;23;20001;-74
2023/05/17 06:41:10;;;;;;;16.13;4.45;;;11.20;99.90;;;;;;6214894;23;20027;-73
2023/05/17 06:43:36;;;;;;;23.23;4.75;;;11.30;99.90;;;;;;6241271;23;20062;-72
2023/05/17 06:46:01;;;;;;;15.80;4.15;;;11.30;99.90;;;;;;6242067;23;20024;-72
2023/05/17 06:48:27;;;;;;;20.27;4.50;;;11.40;99.90;;;;;;6241523;23;20075;-73
2023/05/17 06:50:52;;;;;;;14.73;4.13;;;11.30;99.90;;;;;;6242023;23;20076;-73
2023/05/17 06:53:18;;;;;;;16.42;4.15;;;11.40;99.90;;;;;;6241102;23;20079;-72
2023/05/17 06:55:44;;;;;;;17.63;4.15;;;11.40;99.90;;;;;;6241449;23;20023;-73
2023/05/17 06:58:09;;;;;;;16.58;4.18;;;11.60;99.90;;;;;;6240520;23;20145;-72
2023/05/17 07:00:35;;;;;;;9.10;2.95;;;11.80;99.90;;;;;;6240940;23;19992;-72
2023/05/17 07:03:01;;;;;;;17.83;3.00;;;11.90;99.90;;;;;;6241121;23;20000;-72
2023/05/17 07:05:29;;;;;;;21.27;3.13;;;12.10;99.90;;;;;;6240605;23;20004;-73
2023/05/17 07:07:55;;;;;;;11.90;3.10;;;12.30;99.90;;;;;;6241161;23;20023;-73
2023/05/17 07:10:21;;;;;;;12.65;3.13;;;12.40;99.90;;;;;;6240884;23;20004;-73
2023/05/17 07:12:46;;;;;;;17.20;2.63;;;12.50;99.90;;;;;;6213787;23;20395;-73
2023/05/17 07:15:12;;;;;;;15.25;2.15;;;12.60;99.90;;;;;;6240455;23;20010;-74
2023/05/17 07:17:37;;;;;;;9.35;1.80;;;12.60;99.90;;;;;;6238905;23;20010;-74
2023/05/17 07:20:04;;;;;;;11.43;3.40;;;12.50;99.90;;;;;;6239946;23;20046;-74
2023/05/17 07:22:30;;;;;;;10.63;1.52;;;12.40;99.90;;;;;;6237722;23;19996;-74
2023/05/17 07:24:55;;;;;;;10.30;1.75;;;12.30;99.90;;;;;;6239534;23;20030;-74
2023/05/17 07:27:21;;;;;;;7.90;1.65;;;12.30;99.90;;;;;;6238815;23;20019;-75
2023/05/17 07:29:47;;;;;;;13.18;2.70;;;12.30;99.90;;;;;;6240213;23;19996;-74
2023/05/17 07:32:12;;;;;;;11.80;2.40;;;12.30;99.90;;;;;;6239302;23;20533;-73
2023/05/17 07:34:38;;;;;;;7.97;2.28;;;12.30;99.90;;;;;;6212555;23;20010;-73
2023/05/17 07:37:03;;;;;;;13.80;2.70;;;12.40;99.90;;;;;;6239489;23;20000;-74
2023/05/17 07:39:29;;;;;;;12.45;2.47;;;12.50;99.90;;;;;;6212479;23;20066;-74
2023/05/17 07:41:55;;;;;;;8.93;1.83;;;12.50;99.90;;;;;;6212302;23;20062;-74
2023/05/17 07:44:20;;;;;;;9.18;2.10;;;12.60;99.90;;;;;;6239083;23;20303;-73
2023/05/17 07:46:46;;;;;;;15.50;2.70;;;12.50;99.90;;;;;;6239926;23;20028;-74
2023/05/17 07:49:12;;;;;;;21.92;2.90;;;12.50;99.90;;;;;;6239488;23;20008;-70
2023/05/17 07:51:38;;;;;;;15.13;2.42;;;12.50;99.90;;;;;;6239554;23;20071;-72
2023/05/17 07:54:04;;;;;;;8.65;2.08;;;12.60;99.90;;;;;;6239231;23;20089;-71
2023/05/17 07:56:30;;;;;;;11.77;2.25;;;12.60;99.90;;;;;;6238713;23;20000;-72
2023/05/17 07:58:56;;;;;;;12.98;2.65;;;12.80;99.90;;;;;;6239715;23;20007;-72
2023/05/17 08:01:22;;;;;;;7.93;2.28;;;13.00;99.90;;;;;;6238996;23;20035;-72
2023/05/17 08:03:48;;;;;;;18.85;2.40;;;13.20;99.90;;;;;;6239880;23;19996;-74
2023/05/17 08:06:17;;;;;;;12.40;2.70;;;13.30;99.90;;;;;;6239379;23;20077;-74
2023/05/17 08:08:43;;;;;;;10.00;1.65;;;13.20;99.90;;;;;;6239992;23;20070;-73
2023/05/17 08:11:10;;;;;;;12.45;2.08;;;13.10;99.90;;;;;;6238947;23;20012;-73
2023/05/17 08:13:35;;;;;;;9.93;1.73;;;13.00;99.90;;;;;;6240144;23;20094;-74
2023/05/17 08:16:02;;;;;;;12.98;2.17;;;12.90;99.90;;;;;;6239994;23;20008;-73
2023/05/17 08:18:31;;;;;;;12.43;2.00;;;13.00;99.90;;;;;;6212884;23;20000;-74
2023/05/17 08:20:57;;;;;;;8.88;1.55;;;13.10;99.90;;;;;;6239918;23;20451;-73
2023/05/17 08:23:23;;;;;;;9.63;2.00;;;13.20;99.90;;;;;;6239511;23;20123;-74
2023/05/17 08:25:48;;;;;;;6.45;1.83;;;13.20;99.90;;;;;;6239419;23;20433;-73
2023/05/17 08:28:14;;;;;;;8.40;1.65;;;13.20;99.90;;;;;;6239747;23;20073;-74
2023/05/17 08:30:40;;;;;;;9.38;2.00;;;13.30;99.90;;;;;;6240380;23;20398;-74
2023/05/17 08:33:08;;;;;;;9.85;2.25;;;13.30;99.90;;;;;;6240234;23;20382;-74
2023/05/17 08:35:34;;;;;;;4.70;1.40;;;13.30;99.60;;;;;;6212484;23;20008;-74
2023/05/17 08:37:59;;;;;;;7.35;1.33;;;13.30;99.50;;;;;;6240086;23;20032;-74
2023/05/17 08:40:26;;;;;;;5.30;0.95;;;13.20;99.30;;;;;;6238794;23;20008;-75
2023/05/17 08:42:51;;;;;;;10.07;2.20;;;13.10;98.70;;;;;;6213125;23;20291;-75
2023/05/17 08:45:17;;;;;;;7.82;1.27;;;13.10;98.40;;;;;;6239209;23;20000;-74
2023/05/17 08:47:45;;;;;;;6.35;1.50;;;13.20;98.20;;;;;;6239808;23;20031;-75
2023/05/17 08:50:11;;;;;;;14.35;2.10;;;13.40;98.00;;;;;;6239185;23;20054;-75
2023/05/17 08:52:39;;;;;;;9.05;1.65;;;13.50;97.20;;;;;;6240700;23;20015;-74
2023/05/17 08:55:06;;;;;;;9.00;1.25;;;13.50;96.30;;;;;;6240380;23;20068;-74
2023/05/17 08:57:33;;;;;;;7.80;1.40;;;13.70;96.10;;;;;;6241231;23;20000;-74
2023/05/17 09:00:05;;;;;;;6.00;1.10;;;13.70;96.30;;;;;;6241917;23;19999;-72
2023/05/17 09:02:32;;;;;;;9.43;1.13;;;13.90;95.60;;;;;;6241600;23;20027;-72
2023/05/17 09:04:58;;;;;;;4.07;0.88;;;14.10;95.80;;;;;;6241333;23;20011;-73
2023/05/17 09:07:24;;;;;;;8.18;1.50;;;14.40;94.60;;;;;;6240929;23;20470;-73
2023/05/17 09:09:52;;;;;;;6.80;1.30;;;14.40;93.50;;;;;;6240845;23;20004;-72
2023/05/17 09:12:18;;;;;;;9.43;1.40;;;14.40;93.40;;;;;;6241044;23;20004;-73
2023/05/17 09:14:43;;;;;;;5.10;0.80;;;14.40;93.00;;;;;;6241369;23;19996;-72
2023/05/17 09:17:13;;;;;;;6.82;1.23;;;14.40;92.00;;;;;;6241749;23;19999;-72
2023/05/17 09:19:44;;;;;;;10.13;1.77;;;14.30;92.10;;;;;;6241826;23;20076;-73
2023/05/17 09:22:13;;;;;;;4.78;1.23;;;14.50;92.40;;;;;;6241031;23;20066;-75
2023/05/17 09:24:40;;;;;;;8.00;1.38;;;14.60;92.10;;;;;;6240996;23;20098;-74
2023/05/17 09:27:06;;;;;;;8.57;1.63;;;14.70;91.60;;;;;;6241295;23;20028;-74
2023/05/17 09:29:31;;;;;;;5.75;1.42;;;14.60;91.20;;;;;;6241240;23;20004;-74
2023/05/17 09:32:15;;;;;;;8.18;1.48;;;14.50;91.10;;;;;;6241637;23;20039;-74
2023/05/17 09:34:42;;;;;;;5.45;1.35;;;14.40;90.30;;;;;;6241112;23;20076;-73
2023/05/17 09:37:16;;;;;;;8.18;1.52;;;14.30;89.80;;;;;;6240770;23;20314;-74
2023/05/17 09:39:43;;;;;;;;;;;14.50;90.20;;;;;;6241688;23;20364;-73
2023/05/17 09:42:09;;;;;;;8.05;1.27;;;14.60;89.80;;;;;;6241434;23;19899;-74
2023/05/17 09:44:53;;;;;;;6.97;1.30;;;14.70;88.90;;;;;;6241116;23;20023;-74
2023/05/17 09:47:23;;;;;;;4.05;1.30;;;14.80;87.90;;;;;;6241118;23;20638;-73
2023/05/17 09:49:48;;;;;;;7.05;1.65;;;14.80;86.50;;;;;;6241728;23;20101;-74
2023/05/17 09:52:18;;;;;;;8.07;1.35;;;14.80;87.00;;;;;;6240692;23;20170;-74
2023/05/17 09:54:51;;;;;;;3.05;1.10;;;14.80;87.00;;;;;;6241982;23;20026;-73
2023/05/17 09:57:17;;;;;;;3.38;1.02;;;14.90;86.70;;;;;;6242314;23;20028;-73
2023/05/17 09:59:44;;;;;;;7.13;0.90;;;15.00;86.50;;;;;;6241678;23;20042;-74
2023/05/17 10:02:20;;;;;;;11.40;1.90;;;15.20;85.50;;;;;;6241154;23;20004;-74
2023/05/17 10:04:49;;;;;;;11.20;1.30;;;15.10;84.60;;;;;;6241301;23;20323;-74
2023/05/17 10:07:18;;;;;;;4.10;1.13;;;15.00;84.80;;;;;;6213271;23;20004;-74
2023/05/17 10:09:48;;;;;;;6.38;1.35;;;14.80;85.20;;;;;;6214434;23;20425;-74
2023/05/17 10:12:22;;;;;;;6.25;1.02;;;14.80;84.70;;;;;;6241825;23;20078;-74
2023/05/17 10:14:49;;;;;;;5.65;1.20;;;14.80;84.20;;;;;;6241852;23;20329;-74
2023/05/17 10:17:16;;;;;;;4.40;1.48;;;14.90;85.00;;;;;;6241711;23;20075;-74
2023/05/17 10:19:43;;;;;;;5.45;0.88;;;15.00;82.40;;;;;;6217216;23;20066;-74
2023/05/17 10:22:08;;;;;;;3.35;0.75;;;15.00;82.10;;;;;;6241544;23;20019;-74
2023/05/17 10:24:38;;;;;;;7.32;1.58;;;14.90;81.60;;;;;;6240649;23;20369;-74
2023/05/17 10:27:08;;;;;;;6.45;1.27;;;14.80;81.60;;;;;;6241836;23;20000;-74
2023/05/17 10:29:37;;;;;;;2.53;0.90;;;14.90;81.90;;;;;;6241251;23;19996;-74
2023/05/17 10:32:06;;;;;;;5.55;1.25;;;15.00;81.40;;;;;;6214523;23;20018;-74
2023/05/17 10:34:33;;;;;;;5.13;0.95;;;15.10;81.40;;;;;;6214062;23;20094;-74
2023/05/17 10:37:00;;;;;;;9.85;1.10;;;15.20;81.60;;;;;;6240813;23;20004;-74
2023/05/17 10:39:27;;;;;;;3.70;1.00;;;15.10;79.10;;;;;;6240882;23;20038;-74
2023/05/17 10:41:55;;;;;;;6.18;1.35;;;14.90;79.10;;;;;;6240780;23;20046;-74
2023/05/17 10:44:21;;;;;;;6.55;1.10;;;14.80;78.00;;;;;;6241037;23;20007;-74
2023/05/17 10:46:57;;;;;;;6.30;1.13;;;14.80;78.30;;;;;;6240640;23;20019;-75
2023/05/17 10:49:28;;;;;;;5.63;1.20;;;14.80;78.70;;;;;;6239579;23;20068;-74
2023/05/17 10:51:56;;;;;;;7.57;1.23;;;14.90;78.90;;;;;;6240220;23;20334;-74
2023/05/17 10:54:34;;;;;;;6.68;0.88;;;15.00;79.10;;;;;;6240564;23;20008;-74
2023/05/17 10:57:04;;;;;;;4.85;0.93;;;15.00;77.40;;;;;;6240711;23;20000;-77
2023/05/17 10:59:31;;;;;;;4.55;1.33;;;14.90;76.90;;;;;;6240269;23;20007;-75
2023/05/17 11:02:10;;;;;;;3.63;0.98;;;15.00;77.30;;;;;;6240951;23;20000;-74
2023/05/17 11:04:40;;;;;;;9.02;1.45;;;15.10;76.60;;;;;;6240240;23;20419;-74
2023/05/17 11:07:22;;;;;;;6.38;1.02;;;15.10;76.10;;;;;;6240843;23;20027;-77
2023/05/17 11:10:09;;;;;;;5.05;0.98;;;15.10;76.10;;;;;;6239247;23;20004;-73
2023/05/17 11:12:41;;;;;;;7.07;1.15;;;15.20;75.70;;;;;;6240127;23;20253;-79
2023/05/17 11:15:07;;;;;;;4.78;0.95;;;15.30;76.00;;;;;;6240185;23;20452;-76
2023/05/17 11:17:45;;;;;;;5.97;1.10;;;15.40;75.60;;;;;;6239769;23;20024;-73
2023/05/17 11:20:13;;;;;;;4.78;0.90;;;15.50;75.20;;;;;;6239785;23;20008;-75
2023/05/17 11:22:42;;;;;;;9.07;1.17;;;15.50;73.50;;;;;;6240367;23;20418;-75
2023/05/17 11:25:11;;;;;;;8.02;0.80;;;15.50;73.70;;;;;;6212514;23;20020;-74
2023/05/17 11:27:49;;;;;;;5.82;1.02;;;15.50;73.50;;;;;;6240528;23;20027;-75
2023/05/17 11:30:30;;;;;;;6.28;0.95;;;15.50;73.60;;;;;;6240250;23;20370;-75
2023/05/17 11:33:05;;;;;;;10.07;1.13;;;15.50;73.70;;;;;;6240038;23;20011;-75
2023/05/17 11:35:34;;;;;;;5.78;1.02;;;15.70;73.10;;;;;;6240155;23;20012;-75
2023/05/17 11:38:21;;;;;;;6.45;1.10;;;15.60;71.80;;;;;;6240522;23;20298;-75
2023/05/17 11:40:47;;;;;;;6.15;1.10;;;15.60;71.10;;;;;;6240219;23;20065;-75
2023/05/17 11:43:18;;;;;;;7.80;1.40;;;15.60;71.40;;;;;;6240235;23;20057;-75
2023/05/17 11:45:52;;;;;;;6.85;1.35;;;15.60;71.70;;;;;;6240256;23;20009;-75
2023/05/17 11:48:19;;;;;;;;;;;15.70;71.50;;;;;;6240116;23;20004;-75
2023/05/17 11:50:47;;;;;;;9.13;1.20;;;15.80;71.20;;;;;;6240154;23;19979;-76
2023/05/17 11:53:13;;;;;;;3.75;0.90;;;15.80;71.20;;;;;;6240251;23;20005;-76
2023/05/17 11:55:40;;;;;;;7.35;1.10;;;15.90;71.40;;;;;;6240460;23;20426;-76
2023/05/17 11:58:23;;;;;;;6.68;1.40;;;15.90;70.90;;;;;;6240887;23;20027;-76
2023/05/17 12:00:56;;;;;;;5.93;1.20;;;16.00;69.30;;;;;;6240701;23;20015;-76
2023/05/17 12:03:23;;;;;;;8.73;1.25;;;16.00;68.30;;;;;;6240115;23;20016;-77
2023/05/17 12:05:52;;;;;;;6.40;1.10;;;15.90;67.90;;;;;;6240603;23;20799;-76
2023/05/17 12:08:18;;;;;;;6.22;1.45;;;15.90;68.10;;;;;;6240377;23;20000;-79
2023/05/17 12:10:55;;;;;;;5.20;1.50;;;16.00;68.50;;;;;;6240558;23;20126;-76
2023/05/17 12:13:20;;;;;;;8.63;1.33;;;16.00;68.10;;;;;;6240449;23;20075;-76
2023/05/17 12:15:54;;;;;;;6.90;0.98;;;16.10;68.00;;;;;;6239935;23;20044;-76
2023/05/17 12:18:20;;;;;;;;;;;16.00;67.50;;;;;;6240252;23;20008;-76
2023/05/17 12:20:56;;;;;;;6.28;1.33;;;16.00;67.90;;;;;;6240303;23;20236;-76
2023/05/17 12:23:36;;;;;;;7.75;1.80;;;16.20;68.20;;;;;;6240008;23;19992;-76
2023/05/17 12:26:09;;;;;;;8.50;1.63;;;16.20;68.10;;;;;;6241779;23;20016;-77
2023/05/17 12:28:36;;;;;;;6.97;0.90;;;16.30;67.60;;;;;;6214974;23;20485;-75
2023/05/17 12:31:04;;;;;;;5.45;1.08;;;16.20;67.40;;;;;;6241266;23;20325;-76
2023/05/17 12:33:34;;;;;;;5.38;1.45;;;16.20;67.10;;;;;;6241581;23;20003;-76
2023/05/17 12:36:02;;;;;;;7.78;1.40;;;16.20;67.50;;;;;;6215170;23;20310;-75
2023/05/17 12:38:31;;;;;;;4.65;1.30;;;16.20;66.90;;;;;;6242531;23;20004;-76
2023/05/17 12:40:58;;;;;;;5.18;1.80;;;16.20;66.50;;;;;;6215205;23;20058;-76
2023/05/17 12:43:23;;;;;;;8.50;1.58;;;16.20;66.90;;;;;;6242092;23;20004;-76
2023/05/17 12:45:51;;;;;;;8.43;1.50;;;16.20;66.60;;;;;;6241224;23;20006;-76